Time;durP1;ratioP1;P1;durP2;ratioP2;P2;SDS_P1;SDS_P2;PMS_P1;PMS_P2;Temp;Humidity;BMP_temperature;BMP_pressure;BME280_temperature;BME280_humidity;BME280_pressure;Samples;Min_cycle;Max_cycle;Signal;HPM_P1;HPM_P2
2022/10/04 00:02:02;;;;;;;11.40;6.03;;;13.00;99.90;;;;;;4992606;28;20526;-68
2022/10/04 00:04:36;;;;;;;9.60;6.70;;;13.00;99.90;;;;;;4993930;28;20408;-67
2022/10/04 00:07:11;;;;;;;7.30;5.97;;;12.90;99.90;;;;;;4994861;28;20437;-67
2022/10/04 00:09:53;;;;;;;7.53;6.50;;;12.90;99.90;;;;;;4994261;28;20463;-67
2022/10/04 00:12:28;;;;;;;10.00;6.83;;;12.90;99.90;;;;;;4997747;28;20517;-67
2022/10/04 00:15:00;;;;;;;10.27;6.27;;;12.90;99.90;;;;;;5012986;28;20961;-67
2022/10/04 00:17:30;;;;;;;9.70;6.33;;;12.90;99.90;;;;;;4996587;28;20456;-67
2022/10/04 00:19:57;;;;;;;12.13;6.80;;;12.90;99.90;;;;;;4992224;28;20453;-68
2022/10/04 00:22:30;;;;;;;8.33;5.47;;;12.90;99.90;;;;;;4999524;28;20444;-67
2022/10/04 00:25:12;;;;;;;10.73;6.97;;;12.90;99.90;;;;;;4998918;28;20431;-67
2022/10/04 00:27:40;;;;;;;8.43;5.93;;;12.80;99.90;;;;;;4998125;28;21121;-67
2022/10/04 00:30:05;;;;;;;9.13;6.20;;;12.80;99.90;;;;;;5011320;28;21012;-67
2022/10/04 00:32:46;;;;;;;7.50;6.00;;;12.80;99.90;;;;;;4994733;28;20432;-67
2022/10/04 00:35:24;;;;;;;7.20;5.80;;;12.80;99.90;;;;;;4994661;28;20256;-67
2022/10/04 00:37:56;;;;;;;11.27;5.90;;;12.80;99.90;;;;;;4998667;28;20467;-67
2022/10/04 00:40:25;;;;;;;8.80;6.23;;;12.80;99.90;;;;;;4993440;28;20475;-67
2022/10/04 00:43:03;;;;;;;11.03;6.70;;;12.70;99.90;;;;;;4999772;28;20439;-67
2022/10/04 00:45:38;;;;;;;11.40;5.93;;;12.70;99.90;;;;;;4992536;28;20846;-67
2022/10/04 00:48:23;;;;;;;9.00;5.90;;;12.70;99.90;;;;;;4993728;28;20794;-67
2022/10/04 00:50:56;;;;;;;7.30;6.33;;;12.70;99.90;;;;;;4997225;28;20447;-67
2022/10/04 00:53:49;;;;;;;8.60;6.40;;;12.70;99.90;;;;;;4997170;28;20878;-67
2022/10/04 00:56:25;;;;;;;16.47;6.23;;;12.70;99.90;;;;;;4993988;28;20483;-67
2022/10/04 00:59:12;;;;;;;10.00;6.50;;;12.70;99.90;;;;;;4993957;28;20717;-67
2022/10/04 01:01:38;;;;;;;10.73;6.50;;;12.60;99.90;;;;;;4993800;28;20429;-67
2022/10/04 01:04:14;;;;;;;6.20;5.60;;;12.60;99.90;;;;;;4990413;28;20444;-67
2022/10/04 01:06:41;;;;;;;11.43;6.73;;;12.60;99.90;;;;;;5000002;28;20572;-67
2022/10/04 01:09:09;;;;;;;11.20;6.97;;;12.60;99.90;;;;;;4989918;28;20802;-67
2022/10/04 01:11:41;;;;;;;9.60;5.80;;;12.50;99.90;;;;;;4992255;28;20441;-67
2022/10/04 01:14:19;;;;;;;9.57;5.97;;;12.50;99.90;;;;;;4993194;28;20942;-68
2022/10/04 01:16:45;;;;;;;9.50;6.67;;;12.50;99.90;;;;;;5012852;28;21017;-68
2022/10/04 01:19:26;;;;;;;7.50;6.10;;;12.40;99.90;;;;;;4998674;28;20439;-67
2022/10/04 01:22:10;;;;;;;8.00;6.30;;;12.40;99.90;;;;;;4993397;28;20444;-67
2022/10/04 01:24:37;;;;;;;11.13;6.10;;;12.40;99.90;;;;;;5001185;28;20427;-68
2022/10/04 01:27:23;;;;;;;9.00;6.13;;;12.40;99.90;;;;;;4990707;28;20448;-67
2022/10/04 01:29:49;;;;;;;14.43;7.70;;;12.30;99.90;;;;;;4997835;28;20455;-67
2022/10/04 01:32:16;;;;;;;10.43;6.43;;;12.30;99.90;;;;;;4995941;28;21177;-68
2022/10/04 01:34:41;;;;;;;8.57;5.77;;;12.30;99.90;;;;;;5000968;28;20177;-67
2022/10/04 01:37:07;;;;;;;8.77;7.00;;;12.20;99.90;;;;;;4995512;28;20461;-67
2022/10/04 01:39:32;;;;;;;6.50;5.90;;;12.20;99.90;;;;;;4994068;28;20209;-68
2022/10/04 01:42:10;;;;;;;7.70;6.07;;;12.20;99.90;;;;;;4996185;28;20178;-67
2022/10/04 01:44:45;;;;;;;9.53;6.07;;;12.20;99.90;;;;;;4994811;28;20227;-67
2022/10/04 01:47:21;;;;;;;11.10;6.27;;;12.20;99.90;;;;;;4996260;28;20868;-67
2022/10/04 01:49:49;;;;;;;14.40;7.27;;;12.10;99.90;;;;;;4996371;28;20440;-67
2022/10/04 01:52:25;;;;;;;9.20;6.53;;;12.10;99.90;;;;;;4993454;28;20436;-67
2022/10/04 01:55:00;;;;;;;16.20;6.60;;;12.10;99.90;;;;;;4995043;28;20444;-67
2022/10/04 01:57:36;;;;;;;10.80;6.70;;;12.00;99.90;;;;;;4993099;28;20468;-67
2022/10/04 02:00:09;;;;;;;8.30;6.60;;;12.00;99.90;;;;;;4993477;28;20444;-67
2022/10/04 02:02:49;;;;;;;9.60;7.50;;;12.00;99.90;;;;;;4996787;28;20430;-67
2022/10/04 02:05:18;;;;;;;11.73;6.00;;;11.90;99.90;;;;;;4994706;28;20435;-67
2022/10/04 02:07:45;;;;;;;10.90;6.57;;;11.90;99.90;;;;;;4997755;28;20427;-67
2022/10/04 02:10:18;;;;;;;13.10;6.03;;;11.90;99.90;;;;;;4994990;28;20859;-67
2022/10/04 02:12:48;;;;;;;12.33;6.17;;;11.90;99.90;;;;;;5012083;28;20433;-67
2022/10/04 02:15:14;;;;;;;8.90;6.30;;;11.80;99.90;;;;;;4997723;28;20439;-67
2022/10/04 02:17:42;;;;;;;9.73;6.97;;;11.80;99.90;;;;;;4999162;28;20492;-67
2022/10/04 02:20:19;;;;;;;9.93;7.43;;;11.80;99.90;;;;;;4999442;28;20820;-67
2022/10/04 02:22:48;;;;;;;8.47;6.27;;;11.80;99.90;;;;;;4997520;28;20534;-67
2022/10/04 02:25:15;;;;;;;11.40;6.40;;;11.80;99.90;;;;;;4998216;28;20464;-67
2022/10/04 02:27:41;;;;;;;10.33;6.40;;;11.70;99.90;;;;;;5000926;28;20886;-67
2022/10/04 02:30:10;;;;;;;8.93;6.40;;;11.70;99.90;;;;;;4998121;28;20460;-68
2022/10/04 02:35:26;;;;;;;11.63;5.70;;;11.70;99.90;;;;;;4995579;28;20495;-67
2022/10/04 02:38:21;;;;;;;8.53;6.03;;;11.70;99.90;;;;;;4994831;28;20897;-67
2022/10/04 02:40:56;;;;;;;7.30;6.13;;;11.60;99.90;;;;;;4999072;28;20530;-67
2022/10/04 02:43:32;;;;;;;9.77;7.13;;;11.60;99.90;;;;;;4997840;28;20426;-67
2022/10/04 02:46:12;;;;;;;7.60;5.80;;;11.60;99.90;;;;;;4998351;28;20416;-67
2022/10/04 02:48:48;;;;;;;11.00;6.93;;;11.60;99.90;;;;;;5001072;28;20464;-67
2022/10/04 02:51:16;;;;;;;10.30;7.23;;;11.60;99.90;;;;;;5000441;28;20455;-68
2022/10/04 02:53:50;;;;;;;9.33;7.67;;;11.50;99.90;;;;;;4998469;28;20432;-67
2022/10/04 02:56:17;;;;;;;7.17;6.47;;;11.50;99.90;;;;;;5000351;28;20456;-68
2022/10/04 02:58:43;;;;;;;16.40;7.10;;;11.40;99.90;;;;;;5000077;28;20998;-67
2022/10/04 03:01:23;;;;;;;7.10;6.23;;;11.40;99.90;;;;;;4994773;28;20477;-67
2022/10/04 03:03:49;;;;;;;11.03;7.30;;;11.30;99.90;;;;;;4995242;28;20636;-67
2022/10/04 03:06:18;;;;;;;15.10;7.23;;;11.30;99.90;;;;;;4998214;28;20428;-67
2022/10/04 03:08:58;;;;;;;13.50;8.00;;;11.30;99.90;;;;;;4999928;28;20213;-67
2022/10/04 03:11:30;;;;;;;8.77;7.07;;;11.30;99.90;;;;;;5003227;28;20874;-67
2022/10/04 03:13:58;;;;;;;9.33;7.97;;;11.30;99.90;;;;;;5001300;28;20777;-68
2022/10/04 03:16:25;;;;;;;8.60;6.77;;;11.30;99.90;;;;;;4994838;28;21064;-67
2022/10/04 03:18:55;;;;;;;8.27;7.30;;;11.20;99.90;;;;;;5001971;28;20429;-67
2022/10/04 03:21:22;;;;;;;12.67;7.33;;;11.20;99.90;;;;;;4997172;28;20509;-67
2022/10/04 03:23:51;;;;;;;8.50;6.63;;;11.20;99.90;;;;;;5002221;28;20420;-67
2022/10/04 03:26:44;;;;;;;11.60;7.30;;;11.20;99.90;;;;;;5001178;28;20448;-67
2022/10/04 03:29:12;;;;;;;9.37;7.40;;;11.10;99.90;;;;;;4996662;28;20432;-67
2022/10/04 03:31:56;;;;;;;11.63;7.37;;;11.10;99.90;;;;;;4998327;28;20451;-67
2022/10/04 03:34:35;;;;;;;9.47;7.20;;;11.10;99.90;;;;;;5003139;28;20479;-67
2022/10/04 03:37:05;;;;;;;8.23;7.17;;;11.10;99.90;;;;;;4993346;28;20558;-67
2022/10/04 03:39:38;;;;;;;8.70;6.50;;;11.10;99.90;;;;;;4996762;28;21816;-67
2022/10/04 03:42:10;;;;;;;9.40;7.30;;;11.10;99.90;;;;;;4996498;28;20416;-67
2022/10/04 03:44:36;;;;;;;9.87;7.07;;;11.00;99.90;;;;;;5000711;28;20914;-67
2022/10/04 03:47:09;;;;;;;9.60;6.93;;;11.00;99.90;;;;;;4995401;28;20440;-67
2022/10/04 03:49:37;;;;;;;9.10;7.43;;;11.00;99.90;;;;;;4994181;28;20468;-67
2022/10/04 03:52:04;;;;;;;8.80;6.70;;;11.00;99.90;;;;;;4995653;28;20431;-66
2022/10/04 03:54:32;;;;;;;9.83;6.50;;;11.00;99.90;;;;;;5000066;28;20437;-67
2022/10/04 03:56:59;;;;;;;8.80;7.40;;;11.00;99.90;;;;;;4995689;28;20470;-67
2022/10/04 03:59:26;;;;;;;12.80;7.20;;;11.00;99.90;;;;;;4996429;28;20460;-67
2022/10/04 04:01:55;;;;;;;10.77;6.90;;;11.00;99.90;;;;;;4997672;28;20452;-67
2022/10/04 04:04:21;;;;;;;9.83;7.10;;;10.90;99.90;;;;;;4995924;28;20506;-67
2022/10/04 04:06:49;;;;;;;12.77;7.43;;;10.90;99.90;;;;;;4999113;28;20524;-67
2022/10/04 04:09:26;;;;;;;12.37;7.17;;;10.90;99.90;;;;;;4996357;28;20181;-66
2022/10/04 04:11:55;;;;;;;12.67;7.30;;;10.90;99.90;;;;;;5000610;28;20681;-67
2022/10/04 04:14:24;;;;;;;8.63;6.80;;;10.90;99.90;;;;;;4997417;28;20535;-68
2022/10/04 04:16:52;;;;;;;8.07;7.10;;;10.90;99.90;;;;;;4996669;28;20475;-67
2022/10/04 04:19:22;;;;;;;11.43;7.07;;;10.90;99.90;;;;;;4995064;28;20436;-68
2022/10/04 04:21:50;;;;;;;8.13;7.00;;;10.80;99.90;;;;;;4998331;28;20423;-67
2022/10/04 04:24:30;;;;;;;11.17;7.40;;;10.80;99.90;;;;;;4997829;28;20486;-67
2022/10/04 04:27:00;;;;;;;12.50;6.93;;;10.80;99.90;;;;;;4997340;28;20432;-67
2022/10/04 04:29:52;;;;;;;10.33;6.83;;;10.80;99.90;;;;;;4994295;28;20417;-67
2022/10/04 04:32:27;;;;;;;9.77;6.90;;;10.80;99.90;;;;;;4990781;28;20440;-67
2022/10/04 04:34:57;;;;;;;9.23;7.63;;;10.80;99.90;;;;;;4998135;28;20481;-67
2022/10/04 04:37:23;;;;;;;17.17;7.57;;;10.80;99.90;;;;;;4996707;28;20452;-67
2022/10/04 04:39:53;;;;;;;8.40;7.17;;;10.80;99.90;;;;;;5003931;28;20456;-67
2022/10/04 04:42:31;;;;;;;7.70;6.87;;;10.80;99.90;;;;;;4999942;28;20500;-67
2022/10/04 04:45:03;;;;;;;19.63;7.47;;;10.80;99.90;;;;;;4998647;28;20688;-68
2022/10/04 04:47:34;;;;;;;12.50;6.83;;;10.70;99.90;;;;;;4994838;28;20440;-67
2022/10/04 04:50:26;;;;;;;8.70;6.73;;;10.70;99.90;;;;;;5001025;28;20445;-68
2022/10/04 04:52:59;;;;;;;9.70;6.70;;;10.70;99.90;;;;;;4989106;28;20544;-67
2022/10/04 04:55:27;;;;;;;8.20;6.57;;;10.70;99.90;;;;;;5021143;28;21104;-67
2022/10/04 04:57:57;;;;;;;9.97;6.43;;;10.60;99.90;;;;;;5004593;28;20463;-67
2022/10/04 05:00:29;;;;;;;10.00;7.90;;;10.70;99.90;;;;;;5003101;28;21074;-67
2022/10/04 05:03:04;;;;;;;9.03;7.27;;;10.70;99.90;;;;;;5002164;28;20446;-67
2022/10/04 05:05:34;;;;;;;10.70;8.17;;;10.70;99.90;;;;;;4996313;28;20881;-67
2022/10/04 05:08:08;;;;;;;7.97;6.57;;;10.70;99.90;;;;;;5000211;28;20424;-67
2022/10/04 05:10:34;;;;;;;8.93;7.73;;;10.70;99.90;;;;;;4995515;28;20465;-67
2022/10/04 05:13:01;;;;;;;11.50;7.40;;;10.70;99.90;;;;;;4996390;28;20454;-67
2022/10/04 05:15:35;;;;;;;9.60;6.73;;;10.70;99.90;;;;;;5001993;28;20855;-67
2022/10/04 05:18:12;;;;;;;10.50;6.37;;;10.70;99.90;;;;;;5005402;28;20517;-66
2022/10/04 05:20:39;;;;;;;8.37;6.53;;;10.70;99.90;;;;;;5002231;28;20510;-66
2022/10/04 05:23:09;;;;;;;11.07;7.00;;;10.70;99.90;;;;;;5005881;28;20463;-67
2022/10/04 05:25:35;;;;;;;7.50;6.80;;;10.60;99.90;;;;;;5003671;28;20440;-67
2022/10/04 05:28:01;;;;;;;18.20;8.73;;;10.60;99.90;;;;;;5008205;28;20443;-67
2022/10/04 05:30:35;;;;;;;12.40;8.20;;;10.60;99.90;;;;;;5007988;28;20769;-67
2022/10/04 05:33:05;;;;;;;10.47;6.63;;;10.60;99.90;;;;;;5005660;28;20504;-67
2022/10/04 05:35:56;;;;;;;9.53;8.03;;;10.60;99.90;;;;;;5002099;28;20445;-66
2022/10/04 05:38:27;;;;;;;8.80;7.17;;;10.60;99.90;;;;;;5007343;28;20436;-66
2022/10/04 05:41:06;;;;;;;8.57;6.73;;;10.60;99.90;;;;;;5005822;28;20454;-67
2022/10/04 05:43:43;;;;;;;8.83;7.57;;;10.60;99.90;;;;;;5007735;28;20450;-67
2022/10/04 05:46:33;;;;;;;10.77;7.30;;;10.60;99.90;;;;;;5002046;28;20435;-67
2022/10/04 05:49:12;;;;;;;10.40;8.00;;;10.60;99.90;;;;;;4988326;28;20939;-66
2022/10/04 05:51:53;;;;;;;12.40;7.57;;;10.60;99.90;;;;;;4999605;28;20431;-66
2022/10/04 05:54:25;;;;;;;13.03;7.80;;;10.70;99.90;;;;;;4998149;28;20790;-66
2022/10/04 05:57:05;;;;;;;12.03;7.63;;;10.70;99.90;;;;;;5001665;28;20463;-66
2022/10/04 05:59:49;;;;;;;10.07;7.07;;;10.70;99.90;;;;;;4998576;28;21117;-66
2022/10/04 06:02:36;;;;;;;10.27;7.93;;;10.70;99.90;;;;;;4987665;28;20467;-65
2022/10/04 06:05:33;;;;;;;9.17;6.70;;;10.80;99.90;;;;;;4999893;28;20448;-65
2022/10/04 06:08:24;;;;;;;7.70;6.83;;;10.80;99.90;;;;;;4997673;28;20931;-66
2022/10/04 06:11:07;;;;;;;8.30;6.50;;;10.80;99.90;;;;;;4995949;28;20471;-66
2022/10/04 06:14:10;;;;;;;7.37;6.57;;;10.80;99.90;;;;;;4995583;28;20433;-66
2022/10/04 06:16:44;;;;;;;9.67;7.97;;;10.80;99.90;;;;;;4993635;28;20463;-66
2022/10/04 06:19:28;;;;;;;11.03;6.80;;;10.90;99.90;;;;;;4992535;28;20779;-66
2022/10/04 06:21:56;;;;;;;14.70;8.30;;;10.90;99.90;;;;;;4995556;28;21024;-67
2022/10/04 06:24:26;;;;;;;13.33;8.30;;;10.90;99.90;;;;;;4999606;28;20924;-67
2022/10/04 06:26:59;;;;;;;13.10;7.83;;;11.00;99.90;;;;;;4992586;28;20447;-66
2022/10/04 06:29:33;;;;;;;10.00;7.37;;;11.00;99.90;;;;;;4998473;28;20427;-67
2022/10/04 06:32:35;;;;;;;10.50;7.50;;;10.90;99.90;;;;;;4992786;28;20921;-68
2022/10/04 06:35:34;;;;;;;10.63;7.50;;;11.00;99.90;;;;;;4991682;28;20884;-66
2022/10/04 06:38:21;;;;;;;10.47;7.83;;;10.90;99.90;;;;;;4976061;28;20477;-67
2022/10/04 06:41:16;;;;;;;10.50;6.93;;;10.80;99.90;;;;;;4997174;28;20459;-69
2022/10/04 06:43:47;;;;;;;11.23;7.30;;;10.80;99.90;;;;;;4994332;28;20475;-68
2022/10/04 06:46:23;;;;;;;14.60;8.00;;;10.90;99.90;;;;;;4997882;28;20413;-68
2022/10/04 06:49:19;;;;;;;8.90;7.30;;;11.00;99.90;;;;;;4995597;28;20420;-67
2022/10/04 06:52:13;;;;;;;8.53;7.60;;;11.10;99.90;;;;;;4997131;28;20804;-66
2022/10/04 06:55:03;;;;;;;13.03;8.23;;;11.20;99.90;;;;;;4992409;28;20473;-68
2022/10/04 06:57:57;;;;;;;9.30;8.07;;;11.20;99.90;;;;;;4994058;28;20486;-66
2022/10/04 07:00:25;;;;;;;12.50;8.50;;;11.20;99.90;;;;;;4995543;28;20469;-66
2022/10/04 07:03:13;;;;;;;16.60;8.50;;;11.20;99.90;;;;;;4990778;28;20442;-67
2022/10/04 07:05:53;;;;;;;14.60;9.40;;;11.10;99.90;;;;;;4995635;28;20516;-67
2022/10/04 07:08:33;;;;;;;12.23;7.83;;;11.20;99.90;;;;;;5014952;28;20436;-66
2022/10/04 07:11:16;;;;;;;10.77;8.30;;;11.20;99.90;;;;;;5001467;28;20448;-67
2022/10/04 07:14:04;;;;;;;10.33;8.03;;;11.30;99.90;;;;;;4998615;28;20665;-66
2022/10/04 07:16:36;;;;;;;11.17;8.30;;;11.20;99.90;;;;;;5000911;28;20464;-66
2022/10/04 07:19:08;;;;;;;9.60;7.80;;;11.20;99.90;;;;;;5002030;28;20975;-66
2022/10/04 07:22:00;;;;;;;8.67;7.80;;;11.20;99.90;;;;;;5000446;28;20541;-66
2022/10/04 07:24:44;;;;;;;11.20;8.10;;;11.30;99.90;;;;;;5005494;28;20463;-66
2022/10/04 07:27:18;;;;;;;15.70;8.33;;;11.40;99.90;;;;;;4997958;28;20432;-67
2022/10/04 07:29:45;;;;;;;13.23;8.47;;;11.50;99.90;;;;;;4998479;28;20459;-65
2022/10/04 07:32:25;;;;;;;17.83;8.37;;;11.50;99.90;;;;;;4992191;28;20531;-67
2022/10/04 07:35:09;;;;;;;9.70;8.00;;;11.60;99.90;;;;;;4998907;28;20437;-66
2022/10/04 07:38:05;;;;;;;12.97;8.23;;;11.60;99.90;;;;;;5000922;28;20803;-66
2022/10/04 07:40:37;;;;;;;12.73;8.20;;;11.60;99.90;;;;;;4995933;28;20442;-67
2022/10/04 07:43:10;;;;;;;13.30;8.70;;;11.60;99.90;;;;;;5000148;28;20443;-66
2022/10/04 07:45:39;;;;;;;11.70;9.27;;;11.70;99.90;;;;;;4995337;28;20412;-67
2022/10/04 07:48:08;;;;;;;13.17;8.20;;;11.70;99.90;;;;;;4996224;28;20432;-67
2022/10/04 07:50:59;;;;;;;14.40;8.37;;;11.70;99.90;;;;;;4994689;28;20448;-67
2022/10/04 07:54:03;;;;;;;16.37;8.83;;;11.70;99.90;;;;;;4997737;28;20424;-66
2022/10/04 07:56:39;;;;;;;15.23;10.50;;;11.80;99.90;;;;;;4997963;28;20463;-67
2022/10/04 07:59:42;;;;;;;13.07;8.77;;;11.80;99.90;;;;;;5004320;28;20427;-66
2022/10/04 08:02:49;;;;;;;12.07;9.17;;;11.90;99.90;;;;;;5003471;28;20430;-67
2022/10/04 08:05:23;;;;;;;14.00;8.70;;;11.90;99.90;;;;;;4993789;28;20962;-66
2022/10/04 08:08:27;;;;;;;14.20;10.40;;;12.00;99.90;;;;;;4996746;28;20674;-66
2022/10/04 08:11:22;;;;;;;13.00;9.53;;;12.00;99.90;;;;;;4991062;28;20451;-67
2022/10/04 08:14:14;;;;;;;17.23;10.53;;;12.10;99.90;;;;;;4993892;28;20428;-67
2022/10/04 08:16:57;;;;;;;10.47;8.90;;;12.10;99.90;;;;;;4971065;28;20452;-67
2022/10/04 08:19:41;;;;;;;14.17;10.50;;;12.20;99.90;;;;;;4996134;28;20873;-66
2022/10/04 08:22:37;;;;;;;13.43;9.53;;;12.30;99.90;;;;;;4994588;28;20510;-66
2022/10/04 08:25:20;;;;;;;14.00;9.43;;;12.30;99.90;;;;;;4994887;28;21601;-67
2022/10/04 08:31:25;;;;;;;12.30;9.53;;;12.40;99.90;;;;;;4993739;28;20831;-67
2022/10/04 08:34:08;;;;;;;10.60;9.50;;;12.50;99.90;;;;;;4992844;28;20432;-67
2022/10/04 08:37:02;;;;;;;17.10;10.17;;;12.60;99.90;;;;;;4994582;28;20468;-67
2022/10/04 08:39:44;;;;;;;13.37;9.60;;;12.60;99.90;;;;;;4990645;28;20429;-67
2022/10/04 08:42:40;;;;;;;14.17;9.17;;;12.70;99.90;;;;;;4996609;28;20439;-67
2022/10/04 08:45:44;;;;;;;14.23;10.00;;;12.70;99.90;;;;;;4997224;28;20432;-67
2022/10/04 08:48:43;;;;;;;17.37;11.47;;;12.90;99.90;;;;;;4994735;28;20842;-67
2022/10/04 08:51:11;;;;;;;12.70;10.43;;;13.10;99.90;;;;;;4995682;28;20483;-67
2022/10/04 08:53:41;;;;;;;11.67;8.70;;;13.20;99.90;;;;;;4992431;28;20834;-67
2022/10/04 08:56:46;;;;;;;13.73;10.50;;;13.20;99.90;;;;;;4997361;28;20492;-67
2022/10/04 08:59:39;;;;;;;13.07;10.23;;;13.30;99.90;;;;;;4965316;28;20439;-67
2022/10/04 09:02:29;;;;;;;13.10;10.03;;;13.50;99.90;;;;;;4992504;28;20464;-68
2022/10/04 09:05:32;;;;;;;15.60;9.60;;;13.50;99.90;;;;;;4993591;28;20797;-68
2022/10/04 09:08:25;;;;;;;14.10;10.43;;;13.30;99.90;;;;;;4995855;28;20784;-67
2022/10/04 09:11:15;;;;;;;14.77;9.63;;;13.60;99.90;;;;;;5011891;28;20441;-66
2022/10/04 09:14:18;;;;;;;14.17;11.13;;;13.50;99.90;;;;;;5013811;28;20443;-66
2022/10/04 09:16:47;;;;;;;13.33;10.07;;;13.50;99.90;;;;;;4997890;28;20464;-66
2022/10/04 09:19:38;;;;;;;14.90;12.80;;;13.60;99.90;;;;;;5001106;28;20422;-68
2022/10/04 09:22:18;;;;;;;16.80;9.83;;;13.70;99.90;;;;;;4992168;28;20844;-67
2022/10/04 09:24:58;;;;;;;13.10;11.13;;;13.70;99.90;;;;;;5001440;28;20440;-65
2022/10/04 09:27:57;;;;;;;13.97;11.10;;;13.80;99.90;;;;;;4994420;28;20436;-66
2022/10/04 09:30:46;;;;;;;17.37;13.03;;;13.70;99.90;;;;;;4992300;28;20843;-66
2022/10/04 09:33:53;;;;;;;15.93;13.30;;;13.70;99.90;;;;;;4993584;28;20465;-66
2022/10/04 09:36:51;;;;;;;18.10;14.13;;;13.80;99.90;;;;;;4996183;28;20480;-66
2022/10/04 09:39:35;;;;;;;19.30;14.40;;;13.80;99.90;;;;;;5002922;28;20412;-67
2022/10/04 09:42:32;;;;;;;18.63;14.47;;;13.80;99.90;;;;;;5001880;28;20419;-66
2022/10/04 09:45:32;;;;;;;20.43;14.40;;;13.70;99.90;;;;;;4974366;28;21133;-66
2022/10/04 09:48:15;;;;;;;16.77;13.30;;;13.80;99.90;;;;;;4995908;28;20417;-66
2022/10/04 09:51:18;;;;;;;16.40;13.10;;;13.90;99.90;;;;;;4997088;28;20476;-66
2022/10/04 09:53:57;;;;;;;15.90;12.90;;;14.00;99.90;;;;;;4996857;28;20431;-66
2022/10/04 09:56:37;;;;;;;16.10;12.93;;;14.00;99.90;;;;;;4999140;28;20467;-67
2022/10/04 09:59:21;;;;;;;16.07;12.67;;;14.10;99.90;;;;;;4997916;28;20838;-67
2022/10/04 10:01:59;;;;;;;18.00;12.67;;;14.20;99.90;;;;;;4993960;28;20443;-66
2022/10/04 10:04:58;;;;;;;15.60;12.47;;;14.20;99.90;;;;;;4995365;28;21115;-67
2022/10/04 10:07:58;;;;;;;18.93;12.30;;;14.00;99.90;;;;;;4998252;28;20451;-68
2022/10/04 10:13:58;;;;;;;17.43;10.80;;;14.00;99.90;;;;;;4986035;28;20828;-67
2022/10/04 10:16:48;;;;;;;14.57;10.70;;;14.20;99.90;;;;;;4990822;28;20461;-65
2022/10/04 10:19:25;;;;;;;13.70;10.20;;;14.40;99.90;;;;;;4994579;28;20436;-67
2022/10/04 10:22:30;;;;;;;13.83;10.57;;;14.50;99.90;;;;;;4992028;28;20432;-67
2022/10/04 10:25:52;;;;;;;12.57;9.93;;;14.30;99.90;;;;;;4992824;28;20482;-67
2022/10/04 10:28:45;;;;;;;13.70;9.70;;;14.30;99.90;;;;;;4935719;28;20525;-66
2022/10/04 10:31:22;;;;;;;11.57;8.93;;;14.40;99.90;;;;;;4940784;28;20446;-67
2022/10/04 10:34:18;;;;;;;14.33;9.90;;;14.40;99.90;;;;;;4991387;28;20447;-66
2022/10/04 10:37:08;;;;;;;9.57;8.53;;;14.40;99.90;;;;;;5015723;28;20953;-67
2022/10/04 10:40:08;;;;;;;10.73;9.23;;;14.40;99.90;;;;;;5016710;28;20440;-65
2022/10/04 10:42:49;;;;;;;13.27;9.10;;;14.60;99.90;;;;;;5001169;28;20464;-68
2022/10/04 10:45:35;;;;;;;12.60;9.27;;;14.70;99.90;;;;;;4997992;28;20440;-66
2022/10/04 10:48:03;;;;;;;9.23;8.10;;;14.90;99.90;;;;;;4997081;28;20444;-66
2022/10/04 10:51:07;;;;;;;12.90;9.17;;;14.80;99.90;;;;;;4998838;28;20478;-66
2022/10/04 10:54:12;;;;;;;10.93;9.00;;;15.10;99.90;;;;;;4995899;28;20974;-66
2022/10/04 10:56:51;;;;;;;8.33;7.43;;;15.20;99.90;;;;;;4998770;28;20591;-66
2022/10/04 10:59:49;;;;;;;9.97;8.47;;;15.20;99.90;;;;;;4997958;28;20412;-66
2022/10/04 11:02:41;;;;;;;10.80;9.70;;;15.30;99.90;;;;;;4998349;28;20519;-68
2022/10/04 11:05:22;;;;;;;9.63;8.10;;;15.60;99.90;;;;;;4994692;28;20784;-67
2022/10/04 11:08:33;;;;;;;10.80;8.93;;;15.80;99.90;;;;;;4997928;28;20602;-67
2022/10/04 11:11:14;;;;;;;9.93;8.00;;;15.80;99.90;;;;;;4993816;28;20815;-67
2022/10/04 11:13:49;;;;;;;9.97;8.57;;;15.90;99.90;;;;;;4995529;28;20841;-68
2022/10/04 11:16:51;;;;;;;12.03;8.80;;;16.10;99.90;;;;;;4995629;28;20544;-68
2022/10/04 11:20:01;;;;;;;11.43;8.00;;;16.20;99.90;;;;;;4996339;28;20878;-67
2022/10/04 11:23:23;;;;;;;10.23;8.93;;;16.20;99.90;;;;;;5000943;28;20435;-68
2022/10/04 11:26:06;;;;;;;9.33;8.27;;;16.40;99.90;;;;;;4923176;29;20511;-67
2022/10/04 11:29:08;;;;;;;10.43;8.33;;;16.40;99.90;;;;;;4926189;29;20891;-67
2022/10/04 11:31:56;;;;;;;10.63;8.20;;;16.50;99.90;;;;;;4982179;28;20562;-65
2022/10/04 11:35:03;;;;;;;10.17;8.10;;;16.50;99.90;;;;;;4998494;28;20783;-68
2022/10/04 11:37:53;;;;;;;9.57;8.37;;;16.70;99.90;;;;;;4942950;28;20470;-67
2022/10/04 11:40:51;;;;;;;12.13;8.30;;;16.70;99.90;;;;;;4995576;28;20464;-67
2022/10/04 11:43:34;;;;;;;15.07;8.20;;;16.90;99.90;;;;;;5000721;28;20444;-68
2022/10/04 11:46:23;;;;;;;8.20;7.33;;;17.00;99.90;;;;;;5002813;28;20423;-68
2022/10/04 11:48:57;;;;;;;9.80;7.97;;;17.30;99.90;;;;;;4997608;28;20424;-65
2022/10/04 11:51:32;;;;;;;10.93;7.13;;;17.70;99.90;;;;;;4998463;28;20530;-67
2022/10/04 11:54:09;;;;;;;8.93;7.97;;;18.70;99.90;;;;;;4995397;28;20925;-66
2022/10/04 11:57:13;;;;;;;15.57;9.00;;;19.50;99.90;;;;;;4998311;28;21245;-68
2022/10/04 12:00:00;;;;;;;10.90;8.20;;;19.90;99.90;;;;;;4998676;28;20455;-68
2022/10/04 12:03:01;;;;;;;10.47;9.37;;;20.10;99.90;;;;;;4994343;28;20478;-66
2022/10/04 12:06:02;;;;;;;11.67;9.63;;;20.30;99.90;;;;;;5002679;28;20573;-67
2022/10/04 12:08:43;;;;;;;14.70;8.50;;;20.70;99.90;;;;;;5002437;28;20798;-67
2022/10/04 12:12:35;;;;;;;10.23;8.70;;;21.10;99.90;;;;;;5014993;28;21863;-69
2022/10/04 12:14:39;;;;;;;10.83;8.90;;;21.80;99.90;;;;;;4998258;28;20425;-69
2022/10/04 12:17:29;;;;;;;12.93;8.93;;;22.40;99.90;;;;;;5002186;28;20813;-69
2022/10/04 12:20:34;;;;;;;10.17;8.93;;;22.70;99.90;;;;;;5001427;28;20424;-67
2022/10/04 12:23:00;;;;;;;9.80;8.07;;;23.10;99.90;;;;;;4961591;28;20455;-69
2022/10/04 12:25:46;;;;;;;11.90;8.67;;;23.40;99.90;;;;;;4999069;28;20893;-69
2022/10/04 12:28:31;;;;;;;10.80;9.40;;;23.10;99.90;;;;;;4998679;28;20190;-69
2022/10/04 12:31:15;;;;;;;9.43;8.53;;;23.40;99.90;;;;;;4999668;28;20455;-70
2022/10/04 12:34:12;;;;;;;9.07;8.10;;;23.70;99.90;;;;;;4996583;28;20443;-70
2022/10/04 12:37:01;;;;;;;8.80;7.90;;;24.00;99.90;;;;;;4995661;28;20463;-70
2022/10/04 12:39:42;;;;;;;10.70;8.70;;;23.90;99.90;;;;;;4997890;28;21669;-70
2022/10/04 12:42:33;;;;;;;11.67;7.60;;;24.00;99.90;;;;;;4999284;28;20408;-69
2022/10/04 12:45:20;;;;;;;9.97;8.17;;;24.10;99.90;;;;;;5008909;28;20440;-68
2022/10/04 12:48:04;;;;;;;8.37;7.50;;;24.30;99.90;;;;;;5003328;28;20927;-68
2022/10/04 12:50:48;;;;;;;8.57;7.07;;;24.50;99.90;;;;;;4995829;28;21074;-69
2022/10/04 12:53:20;;;;;;;9.53;7.73;;;24.70;99.90;;;;;;4995660;28;20420;-67
2022/10/04 12:56:13;;;;;;;12.10;7.73;;;24.60;99.90;;;;;;4998665;28;20493;-67
2022/10/04 12:58:59;;;;;;;9.13;8.10;;;24.40;99.90;;;;;;4997893;28;20455;-66
2022/10/04 13:01:30;;;;;;;10.40;7.13;;;24.30;99.90;;;;;;4999570;28;20880;-66
2022/10/04 13:04:37;;;;;;;7.90;7.10;;;24.40;99.90;;;;;;5000106;28;20420;-66
2022/10/04 13:07:18;;;;;;;7.83;7.03;;;24.60;99.90;;;;;;4996017;28;20806;-67
2022/10/04 13:10:24;;;;;;;8.63;7.23;;;24.70;99.90;;;;;;4997982;28;20680;-68
2022/10/04 13:13:17;;;;;;;13.20;7.33;;;24.90;99.90;;;;;;5000626;28;21200;-67
2022/10/04 13:16:00;;;;;;;7.67;6.67;;;25.20;99.90;;;;;;5001845;28;20896;-67
2022/10/04 13:18:38;;;;;;;10.07;7.00;;;25.40;99.90;;;;;;4996344;28;20464;-67
2022/10/04 13:21:16;;;;;;;11.27;6.80;;;25.60;99.50;;;;;;4995340;28;20453;-66
2022/10/04 13:24:10;;;;;;;8.70;6.93;;;25.80;98.90;;;;;;4996847;28;20416;-67
2022/10/04 13:26:45;;;;;;;6.90;5.83;;;26.10;97.80;;;;;;4998813;28;20420;-67
2022/10/04 13:29:27;;;;;;;8.03;6.00;;;26.30;96.20;;;;;;4999879;28;20450;-67
2022/10/04 13:32:26;;;;;;;10.57;7.30;;;26.40;96.30;;;;;;4996908;28;20447;-67
2022/10/04 13:35:11;;;;;;;10.70;7.47;;;26.60;94.20;;;;;;4996277;28;20447;-67
2022/10/04 13:38:13;;;;;;;8.43;6.90;;;26.30;94.20;;;;;;4991765;28;20958;-67
2022/10/04 13:40:42;;;;;;;8.93;6.93;;;26.20;93.30;;;;;;4997701;28;20546;-66
2022/10/04 13:43:32;;;;;;;8.50;7.27;;;26.10;93.50;;;;;;4998032;28;20421;-67
2022/10/04 13:46:24;;;;;;;9.73;6.70;;;26.30;93.00;;;;;;4999029;28;20433;-67
2022/10/04 13:48:53;;;;;;;7.23;6.53;;;26.60;92.20;;;;;;4998800;28;20448;-66
2022/10/04 13:51:32;;;;;;;8.57;6.20;;;26.80;92.30;;;;;;4998376;28;20869;-68
2022/10/04 13:57:13;;;;;;;9.33;5.97;;;27.10;91.50;;;;;;4995530;28;20518;-68
2022/10/04 14:00:01;;;;;;;9.80;8.23;;;27.40;90.50;;;;;;4994230;28;20609;-68
2022/10/04 14:02:47;;;;;;;7.13;5.87;;;27.70;89.70;;;;;;4997402;28;20424;-68
2022/10/04 14:05:21;;;;;;;12.90;6.63;;;27.80;87.60;;;;;;4998192;28;20494;-68